sensor_id;sensor_type;location;lat;lon;timestamp;pressure;altitude;pressure_sealevel;temperature;humidity
21826;BME280;11075;47.944;11.776;2023-05-19T00:01:19;95159.94;;;3.92;43.17
21826;BME280;11075;47.944;11.776;2023-05-19T00:03:57;95149.94;;;4.45;42.91
21826;BME280;11075;47.944;11.776;2023-05-19T00:06:26;95153.81;;;3.33;44.45
21826;BME280;11075;47.944;11.776;2023-05-19T00:09:02;95149.16;;;4.45;42.57
21826;BME280;11075;47.944;11.776;2023-05-19T00:11:30;95141.31;;;3.87;43.66
21826;BME280;11075;47.944;11.776;2023-05-19T00:13:58;95142.44;;;4.28;42.44
21826;BME280;11075;47.944;11.776;2023-05-19T00:16:27;95138.53;;;3.73;43.68
21826;BME280;11075;47.944;11.776;2023-05-19T00:18:56;95146.59;;;3.63;43.71
21826;BME280;11075;47.944;11.776;2023-05-19T00:21:23;95142.13;;;4.73;42.17
21826;BME280;11075;47.944;11.776;2023-05-19T00:23:50;95135.63;;;4.17;43.02
21826;BME280;11075;47.944;11.776;2023-05-19T00:26:17;95133.81;;;4.55;42.20
21826;BME280;11075;47.944;11.776;2023-05-19T00:28:53;95127.03;;;3.49;44.11
21826;BME280;11075;47.944;11.776;2023-05-19T00:31:20;95134.50;;;3.47;44.19
21826;BME280;11075;47.944;11.776;2023-05-19T00:33:47;95129.22;;;3.41;44.41
21826;BME280;11075;47.944;11.776;2023-05-19T00:36:14;95126.44;;;3.81;43.97
21826;BME280;11075;47.944;11.776;2023-05-19T00:38:41;95120.34;;;3.80;43.82
21826;BME280;11075;47.944;11.776;2023-05-19T00:41:08;95132.69;;;4.61;42.28
21826;BME280;11075;47.944;11.776;2023-05-19T00:43:35;95119.94;;;3.68;43.83
21826;BME280;11075;47.944;11.776;2023-05-19T00:46:02;95125.09;;;4.68;42.46
21826;BME280;11075;47.944;11.776;2023-05-19T00:48:29;95118.41;;;4.28;42.76
21826;BME280;11075;47.944;11.776;2023-05-19T00:50:56;95133.66;;;3.80;44.04
21826;BME280;11075;47.944;11.776;2023-05-19T00:53:31;95126.09;;;4.91;41.93
21826;BME280;11075;47.944;11.776;2023-05-19T00:55:59;95128.34;;;4.23;43.31
21826;BME280;11075;47.944;11.776;2023-05-19T00:58:27;95127.78;;;4.26;43.09
21826;BME280;11075;47.944;11.776;2023-05-19T01:00:57;95118.41;;;4.28;43.10
21826;BME280;11075;47.944;11.776;2023-05-19T01:03:31;95126.81;;;4.59;42.24
21826;BME280;11075;47.944;11.776;2023-05-19T01:06:02;95129.63;;;4.87;41.74
21826;BME280;11075;47.944;11.776;2023-05-19T01:08:31;95119.00;;;5.33;40.73
21826;BME280;11075;47.944;11.776;2023-05-19T01:10:59;95115.13;;;5.25;40.76
21826;BME280;11075;47.944;11.776;2023-05-19T01:13:26;95112.94;;;3.96;43.30
21826;BME280;11075;47.944;11.776;2023-05-19T01:16:00;95125.53;;;2.64;46.62
21826;BME280;11075;47.944;11.776;2023-05-19T01:18:44;95118.47;;;3.81;44.01
21826;BME280;11075;47.944;11.776;2023-05-19T01:29:27;95114.94;;;2.98;45.38
21826;BME280;11075;47.944;11.776;2023-05-19T01:31:58;95123.88;;;3.41;45.31
21826;BME280;11075;47.944;11.776;2023-05-19T01:34:26;95124.88;;;2.88;46.41
21826;BME280;11075;47.944;11.776;2023-05-19T01:36:54;95117.66;;;3.80;44.23
21826;BME280;11075;47.944;11.776;2023-05-19T01:39:24;95119.13;;;3.38;45.32
21826;BME280;11075;47.944;11.776;2023-05-19T01:41:52;95127.63;;;3.11;45.90
21826;BME280;11075;47.944;11.776;2023-05-19T01:44:21;95120.34;;;3.51;45.25
21826;BME280;11075;47.944;11.776;2023-05-19T01:46:49;95121.31;;;3.31;45.17
21826;BME280;11075;47.944;11.776;2023-05-19T01:49:16;95123.66;;;3.67;44.88
21826;BME280;11075;47.944;11.776;2023-05-19T01:51:43;95117.09;;;3.83;44.38
21826;BME280;11075;47.944;11.776;2023-05-19T01:54:10;95119.03;;;3.78;44.72
21826;BME280;11075;47.944;11.776;2023-05-19T01:56:44;95124.31;;;2.91;46.55
21826;BME280;11075;47.944;11.776;2023-05-19T01:59:22;95124.34;;;3.49;45.36
21826;BME280;11075;47.944;11.776;2023-05-19T02:01:56;95120.72;;;3.10;46.20
21826;BME280;11075;47.944;11.776;2023-05-19T02:04:35;95116.97;;;3.40;45.69
21826;BME280;11075;47.944;11.776;2023-05-19T02:07:12;95113.75;;;3.96;44.38
21826;BME280;11075;47.944;11.776;2023-05-19T02:12:36;95105.38;;;3.55;44.88
21826;BME280;11075;47.944;11.776;2023-05-19T02:15:08;95105.59;;;3.88;44.84
21826;BME280;11075;47.944;11.776;2023-05-19T02:17:41;95114.38;;;3.01;46.67
21826;BME280;11075;47.944;11.776;2023-05-19T02:20:16;95104.50;;;4.31;43.97
21826;BME280;11075;47.944;11.776;2023-05-19T02:22:44;95097.13;;;4.66;43.47
21826;BME280;11075;47.944;11.776;2023-05-19T02:25:11;95093.84;;;3.89;44.28
21826;BME280;11075;47.944;11.776;2023-05-19T02:27:40;95099.31;;;4.40;43.07
21826;BME280;11075;47.944;11.776;2023-05-19T02:30:08;95102.00;;;3.73;45.02
21826;BME280;11075;47.944;11.776;2023-05-19T02:32:35;95106.22;;;3.51;45.63
21826;BME280;11075;47.944;11.776;2023-05-19T02:35:03;95100.03;;;3.84;44.79
21826;BME280;11075;47.944;11.776;2023-05-19T02:37:30;95105.13;;;4.04;44.36
21826;BME280;11075;47.944;11.776;2023-05-19T02:39:58;95097.97;;;4.80;42.82
21826;BME280;11075;47.944;11.776;2023-05-19T02:42:25;95096.34;;;2.93;46.40
21826;BME280;11075;47.944;11.776;2023-05-19T02:44:53;95093.53;;;2.79;47.42
21826;BME280;11075;47.944;11.776;2023-05-19T02:47:20;95093.22;;;3.97;45.02
21826;BME280;11075;47.944;11.776;2023-05-19T02:49:47;95084.78;;;3.66;45.34
21826;BME280;11075;47.944;11.776;2023-05-19T02:52:14;95090.28;;;2.88;47.06
21826;BME280;11075;47.944;11.776;2023-05-19T02:54:41;95092.91;;;3.98;44.92
21826;BME280;11075;47.944;11.776;2023-05-19T02:57:08;95093.28;;;3.39;46.23
21826;BME280;11075;47.944;11.776;2023-05-19T02:59:35;95090.50;;;4.21;44.10
21826;BME280;11075;47.944;11.776;2023-05-19T03:02:02;95090.13;;;4.08;44.59
21826;BME280;11075;47.944;11.776;2023-05-19T03:04:29;95096.66;;;4.40;44.07
21826;BME280;11075;47.944;11.776;2023-05-19T03:06:56;95083.59;;;3.48;45.58
21826;BME280;11075;47.944;11.776;2023-05-19T03:09:23;95084.16;;;2.87;46.86
21826;BME280;11075;47.944;11.776;2023-05-19T03:11:50;95086.59;;;3.65;45.44
21826;BME280;11075;47.944;11.776;2023-05-19T03:14:17;95084.56;;;4.05;44.47
21826;BME280;11075;47.944;11.776;2023-05-19T03:16:44;95087.94;;;3.39;45.78
21826;BME280;11075;47.944;11.776;2023-05-19T03:19:11;95086.47;;;4.23;44.00
21826;BME280;11075;47.944;11.776;2023-05-19T03:21:38;95089.00;;;3.91;44.76
21826;BME280;11075;47.944;11.776;2023-05-19T03:24:05;95084.59;;;4.24;43.79
21826;BME280;11075;47.944;11.776;2023-05-19T03:26:33;95099.94;;;5.07;42.58
21826;BME280;11075;47.944;11.776;2023-05-19T03:28:59;95096.16;;;4.38;43.69
21826;BME280;11075;47.944;11.776;2023-05-19T03:31:29;95090.41;;;4.68;42.90
21826;BME280;11075;47.944;11.776;2023-05-19T03:33:57;95090.75;;;4.43;43.44
21826;BME280;11075;47.944;11.776;2023-05-19T03:36:24;95089.22;;;4.37;44.00
21826;BME280;11075;47.944;11.776;2023-05-19T03:38:58;95081.81;;;4.71;43.06
21826;BME280;11075;47.944;11.776;2023-05-19T03:41:26;95085.25;;;4.91;42.43
21826;BME280;11075;47.944;11.776;2023-05-19T03:43:53;95084.41;;;4.39;44.34
21826;BME280;11075;47.944;11.776;2023-05-19T03:46:19;95082.50;;;4.21;43.98
21826;BME280;11075;47.944;11.776;2023-05-19T03:48:53;95087.44;;;3.66;45.32
21826;BME280;11075;47.944;11.776;2023-05-19T03:51:38;95078.19;;;4.81;42.51
21826;BME280;11075;47.944;11.776;2023-05-19T03:54:17;95076.38;;;4.58;43.11
21826;BME280;11075;47.944;11.776;2023-05-19T03:56:46;95076.09;;;3.79;44.79
21826;BME280;11075;47.944;11.776;2023-05-19T03:59:14;95076.91;;;4.41;43.68
21826;BME280;11075;47.944;11.776;2023-05-19T04:01:41;95076.84;;;3.56;46.12
21826;BME280;11075;47.944;11.776;2023-05-19T04:04:08;95083.06;;;3.22;46.94
21826;BME280;11075;47.944;11.776;2023-05-19T04:06:35;95080.81;;;3.58;45.82
21826;BME280;11075;47.944;11.776;2023-05-19T04:09:12;95080.44;;;3.94;45.50
21826;BME280;11075;47.944;11.776;2023-05-19T04:11:41;95080.94;;;3.48;46.21
21826;BME280;11075;47.944;11.776;2023-05-19T04:14:08;95080.41;;;4.18;45.04
21826;BME280;11075;47.944;11.776;2023-05-19T04:16:35;95086.72;;;2.97;47.70
21826;BME280;11075;47.944;11.776;2023-05-19T04:19:02;95082.19;;;3.56;46.41
21826;BME280;11075;47.944;11.776;2023-05-19T04:21:29;95090.31;;;3.69;45.81
21826;BME280;11075;47.944;11.776;2023-05-19T04:23:56;95087.50;;;3.56;46.55
21826;BME280;11075;47.944;11.776;2023-05-19T04:26:26;95091.00;;;4.04;45.72
21826;BME280;11075;47.944;11.776;2023-05-19T04:28:56;95086.75;;;3.79;46.18
21826;BME280;11075;47.944;11.776;2023-05-19T04:31:23;95097.25;;;3.70;46.17
21826;BME280;11075;47.944;11.776;2023-05-19T04:33:50;95094.84;;;2.82;47.60
21826;BME280;11075;47.944;11.776;2023-05-19T04:36:19;95090.22;;;3.51;46.13
21826;BME280;11075;47.944;11.776;2023-05-19T04:38:50;95089.94;;;3.52;46.42
21826;BME280;11075;47.944;11.776;2023-05-19T04:41:24;95097.31;;;3.60;46.43
21826;BME280;11075;47.944;11.776;2023-05-19T04:43:51;95089.47;;;3.98;45.79
21826;BME280;11075;47.944;11.776;2023-05-19T04:46:18;95085.72;;;3.75;46.16
21826;BME280;11075;47.944;11.776;2023-05-19T04:48:51;95082.28;;;4.17;45.61
21826;BME280;11075;47.944;11.776;2023-05-19T04:51:18;95076.31;;;3.30;47.02
21826;BME280;11075;47.944;11.776;2023-05-19T04:53:45;95067.28;;;4.21;45.00
21826;BME280;11075;47.944;11.776;2023-05-19T04:56:13;95074.25;;;3.98;45.86
21826;BME280;11075;47.944;11.776;2023-05-19T04:58:42;95076.69;;;3.95;45.67
21826;BME280;11075;47.944;11.776;2023-05-19T05:01:10;95079.69;;;3.64;45.88
21826;BME280;11075;47.944;11.776;2023-05-19T05:03:39;95079.72;;;3.88;45.36
21826;BME280;11075;47.944;11.776;2023-05-19T05:06:07;95081.41;;;5.29;42.96
21826;BME280;11075;47.944;11.776;2023-05-19T05:08:34;95066.91;;;4.09;45.10
21826;BME280;11075;47.944;11.776;2023-05-19T05:11:05;95067.31;;;4.78;44.36
21826;BME280;11075;47.944;11.776;2023-05-19T05:13:33;95071.47;;;4.27;44.95
21826;BME280;11075;47.944;11.776;2023-05-19T05:16:00;95064.91;;;3.77;46.01
21826;BME280;11075;47.944;11.776;2023-05-19T05:18:27;95068.91;;;3.27;46.73
21826;BME280;11075;47.944;11.776;2023-05-19T05:20:54;95063.31;;;4.94;43.43
21826;BME280;11075;47.944;11.776;2023-05-19T05:23:23;95060.69;;;5.08;43.26
21826;BME280;11075;47.944;11.776;2023-05-19T05:25:50;95052.69;;;5.21;43.18
21826;BME280;11075;47.944;11.776;2023-05-19T05:28:17;95053.03;;;5.01;43.13
21826;BME280;11075;47.944;11.776;2023-05-19T05:30:45;95062.00;;;4.91;43.49
21826;BME280;11075;47.944;11.776;2023-05-19T05:33:13;95049.56;;;3.69;45.69
21826;BME280;11075;47.944;11.776;2023-05-19T05:35:41;95055.47;;;3.37;46.35
21826;BME280;11075;47.944;11.776;2023-05-19T05:38:10;95048.22;;;3.90;45.53
21826;BME280;11075;47.944;11.776;2023-05-19T05:40:38;95056.00;;;3.63;45.85
21826;BME280;11075;47.944;11.776;2023-05-19T05:43:06;95051.47;;;5.87;41.35
21826;BME280;11075;47.944;11.776;2023-05-19T05:45:39;95054.53;;;6.08;41.94
21826;BME280;11075;47.944;11.776;2023-05-19T05:48:08;95070.19;;;5.87;41.72
21826;BME280;11075;47.944;11.776;2023-05-19T05:50:35;95074.94;;;5.63;42.30
21826;BME280;11075;47.944;11.776;2023-05-19T05:53:05;95069.41;;;4.81;43.73
21826;BME280;11075;47.944;11.776;2023-05-19T05:55:35;95066.47;;;4.96;43.06
21826;BME280;11075;47.944;11.776;2023-05-19T05:58:04;95068.75;;;4.32;44.42
21826;BME280;11075;47.944;11.776;2023-05-19T06:00:31;95064.28;;;4.65;43.99
21826;BME280;11075;47.944;11.776;2023-05-19T06:02:59;95070.75;;;5.43;42.54
21826;BME280;11075;47.944;11.776;2023-05-19T06:05:26;95060.78;;;5.16;43.30
21826;BME280;11075;47.944;11.776;2023-05-19T06:07:53;95064.91;;;4.57;43.66
21826;BME280;11075;47.944;11.776;2023-05-19T06:10:24;95082.13;;;6.81;39.68
21826;BME280;11075;47.944;11.776;2023-05-19T06:12:52;95072.47;;;4.88;42.75
21826;BME280;11075;47.944;11.776;2023-05-19T06:15:22;95073.19;;;4.93;43.54
21826;BME280;11075;47.944;11.776;2023-05-19T06:18:02;95071.25;;;6.14;40.83
21826;BME280;11075;47.944;11.776;2023-05-19T06:20:29;95071.16;;;6.05;41.02
21826;BME280;11075;47.944;11.776;2023-05-19T06:22:56;95076.09;;;6.98;39.85
21826;BME280;11075;47.944;11.776;2023-05-19T06:25:25;95056.72;;;5.65;41.70
21826;BME280;11075;47.944;11.776;2023-05-19T06:27:53;95072.66;;;5.70;42.93
21826;BME280;11075;47.944;11.776;2023-05-19T06:30:21;95070.53;;;6.36;41.08
21826;BME280;11075;47.944;11.776;2023-05-19T06:33:10;95071.00;;;6.38;41.38
21826;BME280;11075;47.944;11.776;2023-05-19T06:35:37;95065.94;;;5.73;41.97
21826;BME280;11075;47.944;11.776;2023-05-19T06:38:04;95074.25;;;5.57;42.14
21826;BME280;11075;47.944;11.776;2023-05-19T06:40:31;95068.59;;;5.59;42.47
21826;BME280;11075;47.944;11.776;2023-05-19T06:42:58;95082.50;;;5.42;43.52
21826;BME280;11075;47.944;11.776;2023-05-19T06:45:51;95073.34;;;6.17;41.89
21826;BME280;11075;47.944;11.776;2023-05-19T06:48:18;95069.47;;;6.95;40.34
21826;BME280;11075;47.944;11.776;2023-05-19T06:50:46;95066.47;;;6.38;41.01
21826;BME280;11075;47.944;11.776;2023-05-19T06:53:13;95071.09;;;7.27;39.71
21826;BME280;11075;47.944;11.776;2023-05-19T06:55:39;95066.06;;;4.14;44.30
21826;BME280;11075;47.944;11.776;2023-05-19T06:58:25;95069.66;;;4.98;43.76
21826;BME280;11075;47.944;11.776;2023-05-19T07:00:53;95071.38;;;5.95;41.65
21826;BME280;11075;47.944;11.776;2023-05-19T07:03:21;95079.00;;;5.88;42.49
21826;BME280;11075;47.944;11.776;2023-05-19T07:05:48;95071.09;;;5.55;42.87
21826;BME280;11075;47.944;11.776;2023-05-19T07:08:15;95063.91;;;7.14;39.89
21826;BME280;11075;47.944;11.776;2023-05-19T07:10:42;95078.72;;;5.29;42.33
21826;BME280;11075;47.944;11.776;2023-05-19T07:13:12;95079.06;;;4.77;44.05
21826;BME280;11075;47.944;11.776;2023-05-19T07:15:39;95081.88;;;5.78;42.73
21826;BME280;11075;47.944;11.776;2023-05-19T07:18:06;95071.44;;;6.31;41.20
21826;BME280;11075;47.944;11.776;2023-05-19T07:20:34;95081.78;;;7.80;39.00
21826;BME280;11075;47.944;11.776;2023-05-19T07:23:02;95067.31;;;7.59;39.92
21826;BME280;11075;47.944;11.776;2023-05-19T07:25:30;95079.69;;;6.71;40.57
21826;BME280;11075;47.944;11.776;2023-05-19T07:27:58;95072.97;;;5.82;42.60
21826;BME280;11075;47.944;11.776;2023-05-19T07:30:27;95080.44;;;6.35;41.46
21826;BME280;11075;47.944;11.776;2023-05-19T07:32:54;95086.34;;;8.28;38.24
21826;BME280;11075;47.944;11.776;2023-05-19T07:35:22;95088.09;;;7.22;40.07
21826;BME280;11075;47.944;11.776;2023-05-19T07:37:49;95082.56;;;7.81;38.57
21826;BME280;11075;47.944;11.776;2023-05-19T07:40:17;95058.13;;;5.76;42.33
21826;BME280;11075;47.944;11.776;2023-05-19T07:42:44;95075.88;;;6.49;41.62
21826;BME280;11075;47.944;11.776;2023-05-19T07:45:11;95082.09;;;7.87;38.60
21826;BME280;11075;47.944;11.776;2023-05-19T07:47:38;95074.13;;;5.49;43.30
21826;BME280;11075;47.944;11.776;2023-05-19T07:50:05;95075.38;;;4.91;44.32
21826;BME280;11075;47.944;11.776;2023-05-19T07:52:32;95084.34;;;6.65;41.33
21826;BME280;11075;47.944;11.776;2023-05-19T07:55:00;95070.22;;;4.62;44.56
21826;BME280;11075;47.944;11.776;2023-05-19T07:57:28;95066.50;;;6.11;41.73
21826;BME280;11075;47.944;11.776;2023-05-19T07:59:54;95065.84;;;8.49;38.27
21826;BME280;11075;47.944;11.776;2023-05-19T08:02:22;95062.56;;;9.04;37.62
21826;BME280;11075;47.944;11.776;2023-05-19T08:04:48;95054.47;;;8.70;37.97
21826;BME280;11075;47.944;11.776;2023-05-19T08:07:16;95051.16;;;7.81;39.58
21826;BME280;11075;47.944;11.776;2023-05-19T08:09:43;95062.16;;;7.71;39.81
21826;BME280;11075;47.944;11.776;2023-05-19T08:12:09;95057.94;;;8.27;38.88
21826;BME280;11075;47.944;11.776;2023-05-19T08:14:36;95060.94;;;6.71;41.84
21826;BME280;11075;47.944;11.776;2023-05-19T08:17:03;95076.69;;;4.75;44.21
21826;BME280;11075;47.944;11.776;2023-05-19T08:19:30;95083.47;;;6.06;42.77
21826;BME280;11075;47.944;11.776;2023-05-19T08:21:58;95070.63;;;6.44;41.39
21826;BME280;11075;47.944;11.776;2023-05-19T08:24:26;95077.50;;;8.19;38.51
21826;BME280;11075;47.944;11.776;2023-05-19T08:26:58;95064.44;;;7.86;39.39
21826;BME280;11075;47.944;11.776;2023-05-19T08:29:25;95064.22;;;7.35;40.98
21826;BME280;11075;47.944;11.776;2023-05-19T08:31:52;95063.59;;;6.71;41.22
21826;BME280;11075;47.944;11.776;2023-05-19T08:34:19;95080.31;;;8.14;39.07
21826;BME280;11075;47.944;11.776;2023-05-19T08:36:46;95070.63;;;7.96;39.89
21826;BME280;11075;47.944;11.776;2023-05-19T08:39:13;95053.13;;;6.11;42.39
21826;BME280;11075;47.944;11.776;2023-05-19T08:41:41;95077.44;;;7.09;40.46
21826;BME280;11075;47.944;11.776;2023-05-19T08:44:08;95066.44;;;7.41;40.27
21826;BME280;11075;47.944;11.776;2023-05-19T08:46:35;95065.78;;;6.32;42.38
21826;BME280;11075;47.944;11.776;2023-05-19T08:49:12;95069.03;;;8.69;38.59
21826;BME280;11075;47.944;11.776;2023-05-19T08:52:05;95075.13;;;9.38;37.28
21826;BME280;11075;47.944;11.776;2023-05-19T08:55:08;95061.38;;;8.10;37.84
21826;BME280;11075;47.944;11.776;2023-05-19T08:57:36;95059.47;;;7.71;40.59
21826;BME280;11075;47.944;11.776;2023-05-19T09:00:05;95068.34;;;8.20;39.23
21826;BME280;11075;47.944;11.776;2023-05-19T09:02:38;95056.88;;;8.97;37.90
21826;BME280;11075;47.944;11.776;2023-05-19T09:05:25;95049.41;;;7.77;39.77
21826;BME280;11075;47.944;11.776;2023-05-19T09:07:52;95054.09;;;8.11;39.33
21826;BME280;11075;47.944;11.776;2023-05-19T09:10:19;95067.75;;;8.40;38.74
21826;BME280;11075;47.944;11.776;2023-05-19T09:12:46;95053.56;;;7.52;40.22
21826;BME280;11075;47.944;11.776;2023-05-19T09:15:17;95061.16;;;9.62;37.02
21826;BME280;11075;47.944;11.776;2023-05-19T09:17:45;95061.81;;;9.59;36.48
21826;BME280;11075;47.944;11.776;2023-05-19T09:20:15;95039.63;;;8.64;37.83
21826;BME280;11075;47.944;11.776;2023-05-19T09:22:43;95048.47;;;8.55;38.11
21826;BME280;11075;47.944;11.776;2023-05-19T09:25:23;95033.28;;;8.16;38.81
21826;BME280;11075;47.944;11.776;2023-05-19T09:27:50;95031.16;;;7.48;39.60
21826;BME280;11075;47.944;11.776;2023-05-19T09:30:19;95055.50;;;7.29;39.42
21826;BME280;11075;47.944;11.776;2023-05-19T09:32:46;95061.25;;;8.41;37.75
21826;BME280;11075;47.944;11.776;2023-05-19T09:35:14;95041.09;;;7.96;37.91
21826;BME280;11075;47.944;11.776;2023-05-19T09:37:45;95048.78;;;8.54;37.73
21826;BME280;11075;47.944;11.776;2023-05-19T09:40:14;95033.47;;;8.37;37.95
21826;BME280;11075;47.944;11.776;2023-05-19T09:42:41;95041.75;;;6.55;40.65
21826;BME280;11075;47.944;11.776;2023-05-19T09:45:10;95045.97;;;8.94;37.34
21826;BME280;11075;47.944;11.776;2023-05-19T09:47:39;95033.06;;;7.96;39.15
21826;BME280;11075;47.944;11.776;2023-05-19T09:50:08;95041.09;;;6.94;40.56
21826;BME280;11075;47.944;11.776;2023-05-19T09:52:37;95051.63;;;8.75;37.21
21826;BME280;11075;47.944;11.776;2023-05-19T09:55:05;95037.28;;;6.14;42.26
21826;BME280;11075;47.944;11.776;2023-05-19T09:57:35;95043.91;;;8.73;38.11
21826;BME280;11075;47.944;11.776;2023-05-19T10:00:07;95028.53;;;8.13;38.21
21826;BME280;11075;47.944;11.776;2023-05-19T10:02:41;95026.03;;;8.17;39.27
21826;BME280;11075;47.944;11.776;2023-05-19T10:05:17;95049.00;;;8.01;39.92
21826;BME280;11075;47.944;11.776;2023-05-19T10:07:49;95035.97;;;8.25;38.61
21826;BME280;11075;47.944;11.776;2023-05-19T10:10:17;95026.38;;;7.14;40.65
21826;BME280;11075;47.944;11.776;2023-05-19T10:12:48;95031.53;;;8.12;39.64
21826;BME280;11075;47.944;11.776;2023-05-19T10:15:17;95022.75;;;6.29;42.06
21826;BME280;11075;47.944;11.776;2023-05-19T10:17:48;95045.19;;;7.45;40.80
21826;BME280;11075;47.944;11.776;2023-05-19T10:22:44;95032.22;;;8.61;38.67
21826;BME280;11075;47.944;11.776;2023-05-19T10:25:12;95030.47;;;8.65;39.08
21826;BME280;11075;47.944;11.776;2023-05-19T10:27:55;95030.31;;;7.78;39.22
21826;BME280;11075;47.944;11.776;2023-05-19T10:30:28;95026.28;;;7.50;40.88
21826;BME280;11075;47.944;11.776;2023-05-19T10:32:58;95029.13;;;7.53;40.19
21826;BME280;11075;47.944;11.776;2023-05-19T10:36:09;95031.69;;;8.15;39.25
21826;BME280;11075;47.944;11.776;2023-05-19T10:38:54;95027.88;;;6.98;40.96
21826;BME280;11075;47.944;11.776;2023-05-19T10:41:33;95014.44;;;7.99;39.80
21826;BME280;11075;47.944;11.776;2023-05-19T10:44:28;95008.56;;;7.88;39.64
21826;BME280;11075;47.944;11.776;2023-05-19T10:46:57;95016.00;;;7.91;39.63
21826;BME280;11075;47.944;11.776;2023-05-19T10:49:24;95026.13;;;7.55;40.04
21826;BME280;11075;47.944;11.776;2023-05-19T10:51:54;95024.34;;;7.81;39.85
21826;BME280;11075;47.944;11.776;2023-05-19T10:54:38;95022.78;;;7.41;41.34
21826;BME280;11075;47.944;11.776;2023-05-19T10:57:07;95022.88;;;7.05;42.02
21826;BME280;11075;47.944;11.776;2023-05-19T10:59:36;95027.38;;;7.49;41.00
21826;BME280;11075;47.944;11.776;2023-05-19T11:02:07;95019.72;;;7.65;41.19
21826;BME280;11075;47.944;11.776;2023-05-19T11:04:48;95013.31;;;7.91;40.65
21826;BME280;11075;47.944;11.776;2023-05-19T11:07:19;95018.84;;;7.95;40.52
21826;BME280;11075;47.944;11.776;2023-05-19T11:09:49;95018.56;;;6.73;41.55
21826;BME280;11075;47.944;11.776;2023-05-19T11:12:21;95023.97;;;8.31;39.73
21826;BME280;11075;47.944;11.776;2023-05-19T11:14:52;94991.13;;;7.60;41.58
21826;BME280;11075;47.944;11.776;2023-05-19T11:17:19;94997.13;;;8.40;38.94
21826;BME280;11075;47.944;11.776;2023-05-19T11:19:56;94976.97;;;7.77;40.40
21826;BME280;11075;47.944;11.776;2023-05-19T11:22:26;95012.59;;;8.95;39.16
21826;BME280;11075;47.944;11.776;2023-05-19T11:24:54;95006.28;;;8.91;37.45
21826;BME280;11075;47.944;11.776;2023-05-19T11:27:32;95016.59;;;10.41;35.34
21826;BME280;11075;47.944;11.776;2023-05-19T11:30:10;94999.75;;;9.64;36.78
21826;BME280;11075;47.944;11.776;2023-05-19T11:32:40;94976.50;;;7.26;40.47
21826;BME280;11075;47.944;11.776;2023-05-19T11:35:08;94999.22;;;6.76;41.38
21826;BME280;11075;47.944;11.776;2023-05-19T11:37:36;95009.00;;;7.73;39.92
21826;BME280;11075;47.944;11.776;2023-05-19T11:40:05;95015.06;;;7.17;41.35
21826;BME280;11075;47.944;11.776;2023-05-19T11:42:33;95017.56;;;6.10;43.18
21826;BME280;11075;47.944;11.776;2023-05-19T11:45:01;95019.47;;;7.92;39.90
21826;BME280;11075;47.944;11.776;2023-05-19T11:47:31;94991.41;;;7.19;41.49
21826;BME280;11075;47.944;11.776;2023-05-19T11:50:21;95019.69;;;8.04;39.69
21826;BME280;11075;47.944;11.776;2023-05-19T11:52:49;95015.69;;;7.45;41.00
21826;BME280;11075;47.944;11.776;2023-05-19T11:55:17;95015.72;;;7.53;41.29
21826;BME280;11075;47.944;11.776;2023-05-19T11:58:10;95006.53;;;7.46;41.29
21826;BME280;11075;47.944;11.776;2023-05-19T12:00:39;95018.25;;;7.58;41.01
21826;BME280;11075;47.944;11.776;2023-05-19T12:03:06;95018.59;;;7.66;40.22
21826;BME280;11075;47.944;11.776;2023-05-19T12:05:44;95009.91;;;7.60;41.51
21826;BME280;11075;47.944;11.776;2023-05-19T12:08:16;95010.56;;;7.26;41.52
21826;BME280;11075;47.944;11.776;2023-05-19T12:10:47;95019.97;;;6.92;42.75
21826;BME280;11075;47.944;11.776;2023-05-19T12:13:18;95008.97;;;6.72;42.32
21826;BME280;11075;47.944;11.776;2023-05-19T12:15:44;95017.47;;;6.74;42.78
21826;BME280;11075;47.944;11.776;2023-05-19T12:18:12;95011.16;;;6.70;42.20
21826;BME280;11075;47.944;11.776;2023-05-19T12:20:39;95016.59;;;6.42;44.22
21826;BME280;11075;47.944;11.776;2023-05-19T12:23:06;95007.97;;;7.43;41.32
21826;BME280;11075;47.944;11.776;2023-05-19T12:25:33;95015.31;;;8.51;39.43
21826;BME280;11075;47.944;11.776;2023-05-19T12:28:01;95014.97;;;8.10;39.85
21826;BME280;11075;47.944;11.776;2023-05-19T12:30:31;95007.41;;;7.02;43.49
21826;BME280;11075;47.944;11.776;2023-05-19T12:33:01;95011.41;;;7.83;40.84
21826;BME280;11075;47.944;11.776;2023-05-19T12:35:29;95008.75;;;8.01;40.32
21826;BME280;11075;47.944;11.776;2023-05-19T12:38:03;95013.31;;;7.12;41.81
21826;BME280;11075;47.944;11.776;2023-05-19T12:40:35;94997.06;;;7.97;41.59
21826;BME280;11075;47.944;11.776;2023-05-19T12:43:04;94995.16;;;7.97;39.97
21826;BME280;11075;47.944;11.776;2023-05-19T12:45:34;94999.50;;;8.24;39.99
21826;BME280;11075;47.944;11.776;2023-05-19T12:48:04;94990.22;;;7.25;41.34
21826;BME280;11075;47.944;11.776;2023-05-19T12:50:32;94990.44;;;7.94;39.83
21826;BME280;11075;47.944;11.776;2023-05-19T12:53:00;94979.28;;;7.52;40.12
21826;BME280;11075;47.944;11.776;2023-05-19T12:55:28;94998.47;;;9.24;38.55
21826;BME280;11075;47.944;11.776;2023-05-19T12:57:56;95014.56;;;10.08;36.51
21826;BME280;11075;47.944;11.776;2023-05-19T13:00:25;95004.78;;;9.28;37.57
21826;BME280;11075;47.944;11.776;2023-05-19T13:03:01;94983.84;;;8.69;38.88
21826;BME280;11075;47.944;11.776;2023-05-19T13:05:33;94976.81;;;9.20;39.06
21826;BME280;11075;47.944;11.776;2023-05-19T13:08:03;94993.78;;;9.03;38.23
21826;BME280;11075;47.944;11.776;2023-05-19T13:10:32;94983.50;;;7.14;41.77
21826;BME280;11075;47.944;11.776;2023-05-19T13:12:59;94984.97;;;9.41;37.93
21826;BME280;11075;47.944;11.776;2023-05-19T13:15:28;94987.97;;;8.41;40.00
21826;BME280;11075;47.944;11.776;2023-05-19T13:17:59;94991.66;;;7.79;40.99
21826;BME280;11075;47.944;11.776;2023-05-19T13:20:26;94989.50;;;7.99;40.01
21826;BME280;11075;47.944;11.776;2023-05-19T13:22:54;94985.03;;;9.15;38.66
21826;BME280;11075;47.944;11.776;2023-05-19T13:25:22;94987.16;;;8.92;38.73
21826;BME280;11075;47.944;11.776;2023-05-19T13:27:49;94978.16;;;8.71;39.42